createdAt,value
2019-05-21T00:00:07.201Z,998.75
2019-05-21T00:01:07.259Z,998.73
2019-05-21T00:02:07.316Z,998.73
2019-05-21T00:03:07.375Z,998.68
2019-05-21T00:04:07.435Z,998.69
2019-05-21T00:05:07.492Z,998.72
2019-05-21T00:06:07.550Z,998.73
2019-05-21T00:07:07.606Z,998.66
2019-05-21T00:08:07.666Z,998.68
2019-05-21T00:09:07.723Z,998.68
2019-05-21T00:10:07.780Z,998.66
2019-05-21T00:11:07.838Z,998.63
2019-05-21T00:12:07.897Z,998.63
2019-05-21T00:13:07.955Z,998.64
2019-05-21T00:14:08.013Z,998.69
2019-05-21T00:15:08.070Z,998.69
2019-05-21T00:16:08.128Z,998.71
2019-05-21T00:17:08.570Z,998.70
2019-05-21T00:18:08.246Z,998.71
2019-05-21T00:19:08.302Z,998.69
2019-05-21T00:20:08.360Z,998.73
2019-05-21T00:21:08.420Z,998.69
2019-05-21T00:22:08.477Z,998.73
2019-05-21T00:23:08.535Z,998.79
2019-05-21T00:24:08.591Z,998.80
2019-05-21T00:25:08.653Z,998.78
2019-05-21T00:26:08.708Z,998.82
2019-05-21T00:27:08.770Z,998.82
2019-05-21T00:28:08.824Z,998.86
2019-05-21T00:29:08.882Z,998.85
2019-05-21T00:30:08.940Z,998.80
2019-05-21T00:31:08.997Z,998.78
2019-05-21T00:32:09.055Z,998.79
2019-05-21T00:33:09.114Z,998.78
2019-05-21T00:34:09.172Z,998.74
2019-05-21T00:35:09.229Z,998.76
2019-05-21T00:36:09.288Z,998.75
2019-05-21T00:37:09.393Z,998.75
2019-05-21T00:38:09.403Z,998.74
2019-05-21T00:39:09.461Z,998.71
2019-05-21T00:40:09.519Z,998.74
2019-05-21T00:41:09.578Z,998.71
2019-05-21T00:42:09.635Z,998.73
2019-05-21T00:43:09.713Z,998.71
2019-05-21T00:44:09.750Z,998.67
2019-05-21T00:45:09.820Z,998.65
2019-05-21T00:46:09.866Z,998.69
2019-05-21T00:47:09.927Z,998.68
2019-05-21T00:48:09.986Z,998.68
2019-05-21T00:49:10.041Z,998.66
2019-05-21T00:50:10.099Z,998.70
2019-05-21T00:51:10.157Z,998.72
2019-05-21T00:52:10.217Z,998.70
2019-05-21T00:53:10.272Z,998.63
2019-05-21T00:54:10.330Z,998.62
2019-05-21T00:55:10.389Z,998.65
2019-05-21T00:56:10.447Z,998.66
2019-05-21T00:57:10.506Z,998.60
2019-05-21T00:58:10.562Z,998.66
2019-05-21T00:59:10.640Z,998.65
2019-05-21T01:00:11.057Z,998.60
2019-05-21T01:01:10.737Z,998.63
2019-05-21T01:02:10.798Z,998.61
2019-05-21T01:03:10.851Z,998.58
2019-05-21T01:04:10.910Z,998.64
2019-05-21T01:05:10.968Z,998.61
2019-05-21T01:06:11.025Z,998.62
2019-05-21T01:07:11.083Z,998.60
2019-05-21T01:08:11.141Z,998.60
2019-05-21T01:09:11.203Z,998.57
2019-05-21T01:10:11.258Z,998.53
2019-05-21T01:11:11.314Z,998.54
2019-05-21T01:12:11.384Z,998.50
2019-05-21T01:13:11.431Z,998.54
2019-05-21T01:14:11.494Z,998.53
2019-05-21T01:15:11.546Z,998.55
2019-05-21T01:16:11.605Z,998.48
2019-05-21T01:17:11.799Z,998.43
2019-05-21T01:18:11.719Z,998.46
2019-05-21T01:19:11.779Z,998.47
2019-05-21T01:20:11.836Z,998.51
2019-05-21T01:21:11.896Z,998.52
2019-05-21T01:22:11.952Z,998.51
2019-05-21T01:23:12.010Z,998.57
2019-05-21T01:24:12.068Z,998.59
2019-05-21T01:25:12.128Z,998.57
2019-05-21T01:26:12.184Z,998.60
2019-05-21T01:27:12.242Z,998.62
2019-05-21T01:28:12.300Z,998.64
2019-05-21T01:29:12.359Z,998.64
2019-05-21T01:30:12.416Z,998.63
2019-05-21T01:31:12.473Z,998.64
2019-05-21T01:32:12.534Z,998.62
2019-05-21T01:33:12.590Z,998.60
2019-05-21T01:34:12.649Z,998.61
2019-05-21T01:35:17.152Z,998.62
2019-05-21T01:36:12.763Z,998.65
2019-05-21T01:37:12.822Z,998.63
2019-05-21T01:38:12.877Z,998.65
2019-05-21T01:39:12.938Z,998.71
2019-05-21T01:40:13.011Z,998.67
2019-05-21T01:41:13.056Z,998.70
2019-05-21T01:42:13.109Z,998.66
2019-05-21T01:43:13.167Z,998.69
2019-05-21T01:44:13.228Z,998.72
2019-05-21T01:45:13.335Z,998.72
2019-05-21T01:46:13.340Z,998.74
2019-05-21T01:47:13.469Z,998.73
2019-05-21T01:48:13.459Z,998.72
2019-05-21T01:49:13.516Z,998.67
2019-05-21T01:50:13.574Z,998.73
2019-05-21T01:51:13.638Z,998.72
2019-05-21T01:52:13.690Z,998.70
2019-05-21T01:53:13.748Z,998.70
2019-05-21T01:54:13.806Z,998.68
2019-05-21T01:55:13.863Z,998.67
2019-05-21T01:56:13.920Z,998.69
2019-05-21T01:57:13.980Z,998.71
2019-05-21T01:58:14.042Z,998.65
2019-05-21T01:59:14.095Z,998.69
2019-05-21T02:00:14.152Z,998.66
2019-05-21T02:01:14.211Z,998.66
2019-05-21T02:02:14.268Z,998.63
2019-05-21T02:03:14.325Z,998.63
2019-05-21T02:04:14.383Z,998.59
2019-05-21T02:05:14.443Z,998.57
2019-05-21T02:06:14.500Z,998.58
2019-05-21T02:07:14.556Z,998.58
2019-05-21T02:08:14.615Z,998.54
2019-05-21T02:09:14.676Z,998.53
2019-05-21T02:10:14.778Z,998.55
2019-05-21T02:11:14.790Z,998.53
2019-05-21T02:12:14.847Z,998.55
2019-05-21T02:13:14.906Z,998.53
2019-05-21T02:14:15.018Z,998.53
2019-05-21T02:15:15.020Z,998.55
2019-05-21T02:16:15.081Z,998.52
2019-05-21T02:17:15.137Z,998.51
2019-05-21T02:18:15.197Z,998.55
2019-05-21T02:19:15.374Z,998.51
2019-05-21T02:20:15.311Z,998.49
2019-05-21T02:21:15.375Z,998.51
2019-05-21T02:22:15.429Z,998.47
2019-05-21T02:23:15.486Z,998.50
2019-05-21T02:24:15.543Z,998.46
2019-05-21T02:25:15.600Z,998.46
2019-05-21T02:26:15.657Z,998.46
2019-05-21T02:27:15.716Z,998.45
2019-05-21T02:28:15.774Z,998.40
2019-05-21T02:29:15.835Z,998.42
2019-05-21T02:30:15.890Z,998.42
2019-05-21T02:31:15.951Z,998.40
2019-05-21T02:32:16.008Z,998.35
2019-05-21T02:33:16.065Z,998.38
2019-05-21T02:34:16.121Z,998.39
2019-05-21T02:35:16.179Z,998.42
2019-05-21T02:36:16.240Z,998.39
2019-05-21T02:37:16.296Z,998.31
2019-05-21T02:38:16.352Z,998.37
2019-05-21T02:39:16.410Z,998.31
2019-05-21T02:40:16.470Z,998.36
2019-05-21T02:41:16.531Z,998.34
2019-05-21T02:42:16.584Z,998.29
2019-05-21T02:43:16.645Z,998.36
2019-05-21T02:44:16.701Z,998.40
2019-05-21T02:45:16.763Z,998.31
2019-05-21T02:46:16.817Z,998.27
2019-05-21T02:47:16.874Z,998.20
2019-05-21T02:48:16.936Z,998.25
2019-05-21T02:49:16.987Z,998.22
2019-05-21T02:50:17.046Z,998.17
2019-05-21T02:51:17.105Z,998.17
2019-05-21T02:52:17.164Z,998.17
2019-05-21T02:53:17.220Z,998.24
2019-05-21T02:54:17.281Z,998.20
2019-05-21T02:55:17.339Z,998.33
2019-05-21T02:56:17.395Z,998.30
2019-05-21T02:57:17.453Z,998.30
2019-05-21T02:58:17.507Z,998.20
2019-05-21T02:59:17.584Z,998.30
2019-05-21T03:00:17.623Z,998.36
2019-05-21T03:01:18.069Z,998.26
2019-05-21T03:02:17.737Z,998.33
2019-05-21T03:03:17.796Z,998.33
2019-05-21T03:04:17.852Z,998.34
2019-05-21T03:05:17.913Z,998.25
2019-05-21T03:06:17.972Z,998.09
2019-05-21T03:07:18.053Z,998.21
2019-05-21T03:08:18.092Z,998.19
2019-05-21T03:09:18.142Z,998.23
2019-05-21T03:10:18.203Z,998.27
2019-05-21T03:11:18.256Z,998.25
2019-05-21T03:12:18.343Z,998.30
2019-05-21T03:13:18.371Z,998.18
2019-05-21T03:14:18.426Z,998.31
2019-05-21T03:15:18.484Z,998.25
2019-05-21T03:16:18.543Z,998.22
2019-05-21T03:17:18.601Z,998.28
2019-05-21T03:18:18.660Z,998.31
2019-05-21T03:19:18.715Z,998.43
2019-05-21T03:20:18.773Z,998.37
2019-05-21T03:21:18.836Z,998.39
2019-05-21T03:22:18.885Z,998.34
2019-05-21T03:23:18.943Z,998.38
2019-05-21T03:24:19.313Z,998.35
2019-05-21T03:25:19.059Z,998.32
2019-05-21T03:26:19.114Z,998.41
2019-05-21T03:27:19.200Z,998.50
2019-05-21T03:28:19.233Z,998.50
2019-05-21T03:29:19.289Z,998.55
2019-05-21T03:30:19.347Z,998.53
2019-05-21T03:31:19.408Z,998.55
2019-05-21T03:32:19.463Z,998.61
2019-05-21T03:33:19.638Z,998.58
2019-05-21T03:34:19.580Z,998.66
2019-05-21T03:35:19.633Z,998.64
2019-05-21T03:36:32.651Z,998.67
2019-05-21T03:37:19.748Z,998.71
2019-05-21T03:38:19.803Z,998.65
2019-05-21T03:39:19.947Z,998.67
2019-05-21T03:40:19.943Z,998.68
2019-05-21T03:41:20.004Z,998.66
2019-05-21T03:42:20.043Z,998.66
2019-05-21T03:43:20.094Z,998.68
2019-05-21T03:44:20.152Z,998.67
2019-05-21T03:45:20.208Z,998.66
2019-05-21T03:46:20.266Z,998.62
2019-05-21T03:47:20.321Z,998.69
2019-05-21T03:48:20.386Z,998.68
2019-05-21T03:49:20.439Z,998.66
2019-05-21T03:50:20.496Z,998.72
2019-05-21T03:51:20.554Z,998.73
2019-05-21T03:52:20.611Z,998.65
2019-05-21T03:53:20.671Z,998.70
2019-05-21T03:54:20.729Z,998.64
2019-05-21T03:55:20.787Z,998.72
2019-05-21T03:56:20.846Z,998.69
2019-05-21T03:57:20.901Z,998.65
2019-05-21T03:58:20.956Z,998.71
2019-05-21T03:59:21.013Z,998.71
2019-05-21T04:00:21.071Z,998.72
2019-05-21T04:01:21.165Z,998.77
2019-05-21T04:02:21.496Z,998.72
2019-05-21T04:03:21.256Z,998.76
2019-05-21T04:04:21.303Z,998.70
2019-05-21T04:05:21.359Z,998.78
2019-05-21T04:06:21.419Z,998.76
2019-05-21T04:07:21.485Z,998.76
2019-05-21T04:08:21.536Z,998.69
2019-05-21T04:09:21.589Z,998.70
2019-05-21T04:10:21.646Z,998.73
2019-05-21T04:11:22.395Z,998.71
2019-05-21T04:12:21.762Z,998.72
2019-05-21T04:13:21.820Z,998.63
2019-05-21T04:14:21.878Z,998.73
2019-05-21T04:15:21.940Z,998.62
2019-05-21T04:16:21.996Z,998.63
2019-05-21T04:17:22.051Z,998.73
2019-05-21T04:18:22.112Z,998.71
2019-05-21T04:19:22.166Z,998.73
2019-05-21T04:20:22.222Z,998.78
2019-05-21T04:21:22.284Z,998.84
2019-05-21T04:22:22.337Z,998.94
2019-05-21T04:23:22.394Z,999.00
2019-05-21T04:24:22.452Z,999.03
2019-05-21T04:25:22.512Z,998.88
2019-05-21T04:26:22.572Z,998.94
2019-05-21T04:27:22.625Z,998.94
2019-05-21T04:28:22.683Z,998.91
2019-05-21T04:29:22.747Z,998.90
2019-05-21T04:30:22.797Z,998.89
2019-05-21T04:31:22.856Z,998.92
2019-05-21T04:32:22.915Z,998.92
2019-05-21T04:33:22.971Z,998.97
2019-05-21T04:34:23.434Z,998.90
2019-05-21T04:35:23.086Z,998.93
2019-05-21T04:36:23.156Z,998.96
2019-05-21T04:37:23.204Z,998.97
2019-05-21T04:38:23.257Z,998.98
2019-05-21T04:39:23.333Z,999.00
2019-05-21T04:40:23.374Z,998.97
2019-05-21T04:41:23.431Z,999.01
2019-05-21T04:42:23.488Z,999.03
2019-05-21T04:43:23.554Z,999.03
2019-05-21T04:44:23.603Z,999.10
2019-05-21T04:45:23.662Z,999.05
2019-05-21T04:46:23.720Z,999.08
2019-05-21T04:47:23.781Z,999.07
2019-05-21T04:48:23.833Z,999.04
2019-05-21T04:49:23.891Z,999.04
2019-05-21T04:50:23.946Z,999.03
2019-05-21T04:51:24.015Z,999.11
2019-05-21T04:52:24.062Z,999.02
2019-05-21T04:53:24.125Z,998.95
2019-05-21T04:54:24.176Z,998.91
2019-05-21T04:55:24.235Z,998.96
2019-05-21T04:56:24.294Z,998.97
2019-05-21T04:57:24.362Z,998.97
2019-05-21T04:58:24.421Z,999.00
2019-05-21T04:59:24.466Z,998.96
2019-05-21T05:00:24.522Z,998.96
2019-05-21T05:01:24.579Z,998.95
2019-05-21T05:02:24.636Z,998.90
2019-05-21T05:03:24.694Z,998.96
2019-05-21T05:04:24.753Z,998.91
2019-05-21T05:05:24.809Z,998.91
2019-05-21T05:06:24.893Z,998.89
2019-05-21T05:07:28.350Z,999.02
2019-05-21T05:08:24.980Z,999.01
2019-05-21T05:09:25.040Z,998.97
2019-05-21T05:10:25.094Z,998.86
2019-05-21T05:11:25.155Z,998.88
2019-05-21T05:12:25.209Z,998.88
2019-05-21T05:13:25.300Z,998.84
2019-05-21T05:14:25.353Z,998.87
2019-05-21T05:15:25.383Z,998.82
2019-05-21T05:16:25.446Z,998.86
2019-05-21T05:17:25.495Z,998.85
2019-05-21T05:18:25.551Z,998.91
2019-05-21T05:19:25.931Z,998.84
2019-05-21T05:20:25.667Z,998.92
2019-05-21T05:21:25.725Z,998.84
2019-05-21T05:22:25.782Z,998.82
2019-05-21T05:23:25.856Z,998.83
2019-05-21T05:24:25.909Z,998.78
2019-05-21T05:25:25.953Z,998.81
2019-05-21T05:26:26.011Z,998.79
2019-05-21T05:27:26.577Z,998.80
2019-05-21T05:28:26.125Z,998.82
2019-05-21T05:29:26.181Z,998.80
2019-05-21T05:30:26.238Z,998.82
2019-05-21T05:31:26.298Z,998.75
2019-05-21T05:32:26.356Z,998.80
2019-05-21T05:33:26.416Z,998.79
2019-05-21T05:34:26.473Z,998.83
2019-05-21T05:35:26.526Z,998.85
2019-05-21T05:36:26.583Z,998.89
2019-05-21T05:37:42.573Z,998.66
2019-05-21T05:38:26.711Z,998.77
2019-05-21T05:39:26.754Z,998.82
2019-05-21T05:40:26.811Z,998.80
2019-05-21T05:41:26.872Z,998.81
2019-05-21T05:42:26.926Z,998.82
2019-05-21T05:43:26.982Z,998.76
2019-05-21T05:44:27.039Z,998.77
2019-05-21T05:45:27.098Z,998.81
2019-05-21T05:46:27.154Z,998.80
2019-05-21T05:47:27.210Z,998.78
2019-05-21T05:48:27.266Z,998.80
2019-05-21T05:49:27.324Z,998.90
2019-05-21T05:50:27.381Z,998.89
2019-05-21T05:51:27.438Z,998.90
2019-05-21T05:52:27.496Z,998.94
2019-05-21T05:53:27.552Z,998.90
2019-05-21T05:54:27.610Z,998.87
2019-05-21T05:55:27.671Z,998.89
2019-05-21T05:56:27.724Z,998.83
2019-05-21T05:57:27.779Z,998.76
2019-05-21T05:58:27.861Z,998.75
2019-05-21T05:59:27.895Z,998.79
2019-05-21T06:00:27.951Z,998.76
2019-05-21T06:01:28.009Z,998.76
2019-05-21T06:02:28.065Z,998.78
2019-05-21T06:03:28.123Z,998.86
2019-05-21T06:04:30.497Z,998.87
2019-05-21T06:05:28.237Z,998.84
2019-05-21T06:06:28.295Z,998.81
2019-05-21T06:07:28.349Z,998.76
2019-05-21T06:08:28.406Z,998.74
2019-05-21T06:09:28.464Z,998.84
2019-05-21T06:10:28.529Z,998.78
2019-05-21T06:11:28.579Z,998.90
2019-05-21T06:12:28.637Z,998.88
2019-05-21T06:13:28.694Z,998.92
2019-05-21T06:14:28.784Z,998.97
2019-05-21T06:15:28.808Z,998.99
2019-05-21T06:16:28.877Z,999.07
2019-05-21T06:17:28.920Z,999.12
2019-05-21T06:18:28.977Z,999.15
2019-05-21T06:19:29.035Z,999.13
2019-05-21T06:20:29.092Z,999.14
2019-05-21T06:21:29.149Z,999.17
2019-05-21T06:22:29.205Z,999.15
2019-05-21T06:23:29.308Z,999.19
2019-05-21T06:24:29.320Z,999.25
2019-05-21T06:25:29.378Z,999.21
2019-05-21T06:26:29.433Z,999.21
2019-05-21T06:27:29.493Z,999.28
2019-05-21T06:28:29.548Z,999.18
2019-05-21T06:29:29.606Z,999.23
2019-05-21T06:30:29.690Z,999.24
2019-05-21T06:31:29.720Z,999.27
2019-05-21T06:32:29.788Z,999.22
2019-05-21T06:33:29.834Z,999.29
2019-05-21T06:34:29.889Z,999.29
2019-05-21T06:35:29.948Z,999.22
2019-05-21T06:36:30.005Z,999.26
2019-05-21T06:37:30.062Z,999.36
2019-05-21T06:38:30.118Z,999.27
2019-05-21T06:39:30.179Z,999.39
2019-05-21T06:40:30.235Z,999.38
2019-05-21T06:41:30.291Z,999.32
2019-05-21T06:42:30.346Z,999.35
2019-05-21T06:43:30.405Z,999.40
2019-05-21T06:44:30.461Z,999.42
2019-05-21T06:45:30.517Z,999.18
2019-05-21T06:46:30.575Z,999.52
2019-05-21T06:47:30.635Z,999.50
2019-05-21T06:48:30.693Z,999.44
2019-05-21T06:49:30.746Z,999.53
2019-05-21T06:50:30.801Z,999.52
2019-05-21T06:51:30.979Z,999.48
2019-05-21T06:52:30.915Z,999.54
2019-05-21T06:53:30.973Z,999.64
2019-05-21T06:54:31.028Z,999.51
2019-05-21T06:55:31.088Z,999.62
2019-05-21T06:56:31.157Z,999.68
2019-05-21T06:57:31.202Z,999.61
2019-05-21T06:58:31.256Z,999.63
2019-05-21T06:59:31.313Z,999.74
2019-05-21T07:00:31.371Z,999.75
2019-05-21T07:01:31.431Z,999.82
2019-05-21T07:02:31.484Z,999.83
2019-05-21T07:03:31.544Z,999.88
2019-05-21T07:04:31.599Z,999.93
2019-05-21T07:05:31.657Z,1000.00
2019-05-21T07:06:31.716Z,1000.08
2019-05-21T07:07:31.770Z,1000.03
2019-05-21T07:08:35.113Z,1000.05
2019-05-21T07:09:31.884Z,1000.10
2019-05-21T07:10:31.944Z,1000.15
2019-05-21T07:11:31.997Z,1000.10
2019-05-21T07:12:32.054Z,1000.11
2019-05-21T07:13:32.127Z,1000.13
2019-05-21T07:14:32.167Z,1000.16
2019-05-21T07:15:32.226Z,1000.10
2019-05-21T07:16:32.281Z,1000.12
2019-05-21T07:17:32.343Z,1000.14
2019-05-21T07:18:32.398Z,1000.18
2019-05-21T07:19:32.452Z,1000.17
2019-05-21T07:20:32.516Z,1000.18
2019-05-21T07:21:32.594Z,1000.19
2019-05-21T07:22:32.640Z,1000.20
2019-05-21T07:23:32.681Z,1000.23
2019-05-21T07:24:32.739Z,1000.23
2019-05-21T07:25:32.797Z,1000.26
2019-05-21T07:26:32.856Z,1000.25
2019-05-21T07:27:32.911Z,1000.18
2019-05-21T07:28:32.979Z,1000.22
2019-05-21T07:29:33.027Z,1000.24
2019-05-21T07:30:33.090Z,1000.27
2019-05-21T07:31:33.141Z,1000.26
2019-05-21T07:32:33.209Z,1000.24
2019-05-21T07:33:33.255Z,1000.27
2019-05-21T07:34:33.323Z,1000.34
2019-05-21T07:35:33.373Z,1000.31
2019-05-21T07:36:33.433Z,1000.37
2019-05-21T07:37:33.490Z,1000.38
2019-05-21T07:38:33.544Z,1000.41
2019-05-21T07:39:33.988Z,1000.43
2019-05-21T07:40:33.663Z,1000.44
2019-05-21T07:41:33.721Z,1000.42
2019-05-21T07:42:33.775Z,1000.43
2019-05-21T07:43:33.878Z,1000.44
2019-05-21T07:44:33.895Z,1000.45
2019-05-21T07:45:33.947Z,1000.44
2019-05-21T07:46:34.005Z,1000.49
2019-05-21T07:47:34.112Z,1000.45
2019-05-21T07:48:34.121Z,1000.42
2019-05-21T07:49:34.218Z,1000.42
2019-05-21T07:50:34.235Z,1000.44
2019-05-21T07:51:34.302Z,1000.44
2019-05-21T07:52:34.415Z,1000.45
2019-05-21T07:53:34.410Z,1000.44
2019-05-21T07:54:34.547Z,1000.43
2019-05-21T07:55:35.009Z,1000.47
2019-05-21T07:56:34.608Z,1000.49
2019-05-21T07:57:34.647Z,1000.52
2019-05-21T07:58:34.702Z,1000.52
2019-05-21T07:59:34.757Z,1000.53
2019-05-21T08:00:34.815Z,1000.58
2019-05-21T08:01:34.872Z,1000.58
2019-05-21T08:02:34.931Z,1000.57
2019-05-21T08:03:34.988Z,1000.56
2019-05-21T08:04:35.101Z,1000.61
2019-05-21T08:05:35.112Z,1000.62
2019-05-21T08:06:35.161Z,1000.64
2019-05-21T08:07:35.218Z,1000.68
2019-05-21T08:08:35.280Z,1000.71
2019-05-21T08:09:35.364Z,1000.73
2019-05-21T08:10:35.392Z,1000.70
2019-05-21T08:11:35.455Z,1000.75
2019-05-21T08:12:39.519Z,1000.80
2019-05-21T08:13:35.613Z,1000.75
2019-05-21T08:14:35.626Z,1000.77
2019-05-21T08:15:35.682Z,1000.75
2019-05-21T08:16:35.740Z,1000.76
2019-05-21T08:17:35.797Z,1000.76
2019-05-21T08:18:35.857Z,1000.76
2019-05-21T08:19:35.913Z,1000.80
2019-05-21T08:20:35.984Z,1000.80
2019-05-21T08:21:36.030Z,1000.80
2019-05-21T08:22:36.088Z,1000.80
2019-05-21T08:23:36.147Z,1000.81
2019-05-21T08:24:36.204Z,1000.84
2019-05-21T08:25:36.259Z,1000.88
2019-05-21T08:26:36.318Z,1000.91
2019-05-21T08:27:36.374Z,1000.92
2019-05-21T08:28:36.433Z,1000.89
2019-05-21T08:29:36.799Z,1000.89
2019-05-21T08:30:36.864Z,1000.90
2019-05-21T08:31:36.605Z,1000.90
2019-05-21T08:32:36.681Z,1000.92
2019-05-21T08:33:36.729Z,1000.94
2019-05-21T08:34:36.778Z,1000.92
2019-05-21T08:35:36.837Z,1001.00
2019-05-21T08:36:36.895Z,1001.03
2019-05-21T08:37:36.958Z,1001.02
2019-05-21T08:38:37.014Z,1001.07
2019-05-21T08:39:37.067Z,1001.09
2019-05-21T08:40:37.133Z,1001.07
2019-05-21T08:41:37.184Z,1001.09
2019-05-21T08:42:37.240Z,1001.09
2019-05-21T08:43:37.299Z,1001.12
2019-05-21T08:44:37.360Z,1001.17
2019-05-21T08:45:37.413Z,1001.20
2019-05-21T08:46:37.470Z,1001.18
2019-05-21T08:47:37.529Z,1001.18
2019-05-21T08:48:37.588Z,1001.19
2019-05-21T08:49:37.643Z,1001.15
2019-05-21T08:50:37.701Z,1001.18
2019-05-21T08:51:37.760Z,1001.11
2019-05-21T08:52:37.817Z,1001.14
2019-05-21T08:53:38.282Z,1001.12
2019-05-21T08:54:37.951Z,1001.14
2019-05-21T08:55:37.994Z,1001.10
2019-05-21T08:56:38.049Z,1001.13
2019-05-21T08:57:38.424Z,1001.16
2019-05-21T08:58:38.162Z,1001.08
2019-05-21T08:59:38.220Z,1001.15
2019-05-21T09:00:38.282Z,1001.09
2019-05-21T09:01:38.344Z,1001.15
2019-05-21T09:02:38.394Z,1001.00
2019-05-21T09:03:38.452Z,1001.00
2019-05-21T09:04:46.469Z,1000.96
2019-05-21T09:05:38.707Z,1001.01
2019-05-21T09:06:39.062Z,1000.99
2019-05-21T09:07:38.682Z,1000.99
2019-05-21T09:08:38.741Z,1001.06
2019-05-21T09:09:50.259Z,1000.96
2019-05-21T09:10:38.856Z,1001.01
2019-05-21T09:11:38.924Z,1001.06
2019-05-21T09:12:39.467Z,1001.02
2019-05-21T09:13:39.031Z,1001.01
2019-05-21T09:14:39.093Z,1001.02
2019-05-21T09:15:39.164Z,1001.02
2019-05-21T09:16:39.212Z,1000.97
2019-05-21T09:17:39.261Z,1000.99
2019-05-21T09:18:39.317Z,1001.03
2019-05-21T09:19:39.374Z,1000.97
2019-05-21T09:20:39.432Z,1000.96
2019-05-21T09:21:39.516Z,1000.96
2019-05-21T09:22:39.545Z,1000.95
2019-05-21T09:23:39.603Z,1000.92
2019-05-21T09:24:39.663Z,1001.11
2019-05-21T09:25:39.762Z,1001.00
2019-05-21T09:26:39.780Z,1001.05
2019-05-21T09:27:39.848Z,1001.05
2019-05-21T09:28:39.892Z,1001.03
2019-05-21T09:29:39.950Z,1001.04
2019-05-21T09:30:40.005Z,1001.14
2019-05-21T09:31:40.066Z,1001.15
2019-05-21T09:32:40.142Z,1001.17
2019-05-21T09:33:40.181Z,1001.23
2019-05-21T09:34:48.864Z,1001.24
2019-05-21T09:35:40.302Z,1001.27
2019-05-21T09:36:40.351Z,1001.29
2019-05-21T09:37:40.408Z,1001.30
2019-05-21T09:38:40.465Z,1001.31
2019-05-21T09:39:40.521Z,1001.39
2019-05-21T09:40:40.584Z,1001.43
2019-05-21T09:41:40.638Z,1001.40
2019-05-21T09:42:40.694Z,1001.42
2019-05-21T09:43:40.752Z,1001.43
2019-05-21T09:44:40.814Z,1001.43
2019-05-21T09:45:40.868Z,1001.43
2019-05-21T09:46:40.926Z,1001.48
2019-05-21T09:47:40.984Z,1001.54
2019-05-21T09:48:41.040Z,1001.59
2019-05-21T09:49:41.098Z,1001.56
2019-05-21T09:50:41.166Z,1001.62
2019-05-21T09:51:41.215Z,1001.66
2019-05-21T09:52:41.281Z,1001.72
2019-05-21T09:53:41.329Z,1001.75
2019-05-21T09:54:41.385Z,1001.79
2019-05-21T09:55:41.445Z,1001.84
2019-05-21T09:56:41.502Z,1001.85
2019-05-21T09:57:41.559Z,1001.88
2019-05-21T09:58:42.254Z,1001.94
2019-05-21T09:59:41.685Z,1001.94
2019-05-21T10:00:43.835Z,1001.95
2019-05-21T10:01:47.274Z,1001.97
2019-05-21T10:02:42.299Z,1001.93
2019-05-21T10:03:41.959Z,1001.93
2019-05-21T10:04:42.565Z,1001.95
2019-05-21T10:05:42.021Z,1001.95
2019-05-21T10:06:42.087Z,1001.90
2019-05-21T10:07:42.137Z,1001.87
2019-05-21T10:08:42.198Z,1001.86
2019-05-21T10:09:42.258Z,1001.88
2019-05-21T10:10:42.313Z,1001.85
2019-05-21T10:11:42.372Z,1001.82
2019-05-21T10:12:42.427Z,1001.78
2019-05-21T10:13:42.486Z,1001.81
2019-05-21T10:14:42.542Z,1001.81
2019-05-21T10:15:42.601Z,1001.80
2019-05-21T10:16:42.663Z,1001.84
2019-05-21T10:17:42.730Z,1001.87
2019-05-21T10:18:42.804Z,1001.88
2019-05-21T10:19:42.855Z,1001.86
2019-05-21T10:20:42.890Z,1001.88
2019-05-21T10:21:42.948Z,1001.92
2019-05-21T10:22:43.007Z,1001.90
2019-05-21T10:23:43.065Z,1001.90
2019-05-21T10:24:43.123Z,1001.98
2019-05-21T10:25:43.181Z,1001.98
2019-05-21T10:26:43.275Z,1001.97
2019-05-21T10:27:43.294Z,1001.99
2019-05-21T10:28:43.375Z,1001.97
2019-05-21T10:29:43.411Z,1001.93
2019-05-21T10:30:43.468Z,1001.96
2019-05-21T10:31:43.527Z,1001.96
2019-05-21T10:32:43.587Z,1001.94
2019-05-21T10:33:43.654Z,1002.00
2019-05-21T10:34:43.705Z,1001.96
2019-05-21T10:35:43.758Z,1001.94
2019-05-21T10:36:43.823Z,1001.94
2019-05-21T10:37:54.587Z,1001.94
2019-05-21T10:38:43.931Z,1001.90
2019-05-21T10:39:43.992Z,1001.96
2019-05-21T10:40:44.048Z,1001.95
2019-05-21T10:41:46.155Z,1001.99
2019-05-21T10:42:44.161Z,1001.97
2019-05-21T10:43:44.221Z,1002.02
2019-05-21T10:44:44.280Z,1002.01
2019-05-21T10:45:44.356Z,1002.03
2019-05-21T10:46:44.398Z,1001.88
2019-05-21T10:47:44.459Z,1001.96
2019-05-21T10:48:44.509Z,1001.91
2019-05-21T10:49:44.585Z,1001.99
2019-05-21T10:50:44.625Z,1002.01
2019-05-21T10:51:44.703Z,1001.93
2019-05-21T10:52:44.739Z,1001.82
2019-05-21T10:53:44.803Z,1001.97
2019-05-21T10:54:44.857Z,1001.97
2019-05-21T10:55:44.915Z,1002.03
2019-05-21T10:56:48.399Z,1002.06
2019-05-21T10:57:45.030Z,1002.10
2019-05-21T10:58:45.085Z,1002.08
2019-05-21T10:59:45.143Z,1002.06
2019-05-21T11:00:45.204Z,1002.14
2019-05-21T11:01:45.260Z,1002.14
2019-05-21T11:02:45.317Z,1002.16
2019-05-21T11:03:45.374Z,1002.18
2019-05-21T11:04:45.439Z,1002.18
2019-05-21T11:05:45.515Z,1002.25
2019-05-21T11:06:45.546Z,1002.24
2019-05-21T11:07:45.623Z,1002.28
2019-05-21T11:08:45.663Z,1002.25
2019-05-21T11:09:45.761Z,1002.29
2019-05-21T11:10:45.775Z,1002.33
2019-05-21T11:11:45.844Z,1002.39
2019-05-21T11:12:45.895Z,1002.41
2019-05-21T11:13:45.951Z,1002.38
2019-05-21T11:14:46.012Z,1002.41
2019-05-21T11:15:46.575Z,1002.42
2019-05-21T11:16:46.122Z,1002.35
2019-05-21T11:17:59.214Z,1002.43
2019-05-21T11:18:46.236Z,1002.43
2019-05-21T11:19:46.368Z,1002.45
2019-05-21T11:20:46.352Z,1002.49
2019-05-21T11:21:46.410Z,1002.47
2019-05-21T11:22:46.465Z,1002.50
2019-05-21T11:23:46.534Z,1002.47
2019-05-21T11:24:46.581Z,1002.43
2019-05-21T11:25:47.173Z,1002.49
2019-05-21T11:26:46.697Z,1002.47
2019-05-21T11:27:46.753Z,1002.49
2019-05-21T11:28:46.821Z,1002.51
2019-05-21T11:29:46.869Z,1002.51
2019-05-21T11:30:46.928Z,1002.52
2019-05-21T11:31:56.462Z,1002.52
2019-05-21T11:32:48.065Z,1002.50
2019-05-21T11:33:47.135Z,1002.55
2019-05-21T11:34:50.073Z,1002.60
2019-05-21T11:35:47.213Z,1002.62
2019-05-21T11:36:47.271Z,1002.53
2019-05-21T11:37:48.111Z,1002.59
2019-05-21T11:38:47.387Z,1002.59
2019-05-21T11:39:47.444Z,1002.61
2019-05-21T11:40:51.025Z,1002.59
2019-05-21T11:41:47.560Z,1002.58
2019-05-21T11:42:48.107Z,1002.60
2019-05-21T11:43:47.672Z,1002.60
2019-05-21T11:44:47.730Z,1002.66
2019-05-21T11:45:47.789Z,1002.63
2019-05-21T11:46:47.845Z,1002.71
2019-05-21T11:47:47.903Z,1002.66
2019-05-21T11:48:47.960Z,1002.68
2019-05-21T11:49:48.017Z,1002.63
2019-05-21T11:50:48.074Z,1002.73
2019-05-21T11:51:48.133Z,1002.71
2019-05-21T11:52:48.200Z,1002.77
2019-05-21T11:53:48.247Z,1002.83
2019-05-21T11:54:48.307Z,1002.79
2019-05-21T11:55:48.397Z,1002.79
2019-05-21T11:56:48.418Z,1002.80
2019-05-21T11:57:48.476Z,1002.85
2019-05-21T11:58:48.533Z,1002.88
2019-05-21T11:59:48.590Z,1002.88
2019-05-21T12:00:48.647Z,1002.90
2019-05-21T12:01:48.706Z,1002.94
2019-05-21T12:02:48.783Z,1002.96
2019-05-21T12:03:48.820Z,1002.93
2019-05-21T12:04:48.878Z,1002.94
2019-05-21T12:05:48.933Z,1002.93
2019-05-21T12:06:48.990Z,1002.92
2019-05-21T12:07:49.400Z,1002.88
2019-05-21T12:08:56.656Z,1002.88
2019-05-21T12:09:49.163Z,1002.97
2019-05-21T12:10:49.233Z,1002.87
2019-05-21T12:11:49.277Z,1002.91
2019-05-21T12:12:49.335Z,1002.92
2019-05-21T12:13:49.396Z,1002.93
2019-05-21T12:14:49.492Z,1002.96
2019-05-21T12:15:49.508Z,1002.93
2019-05-21T12:16:49.564Z,1003.00
2019-05-21T12:17:49.621Z,1002.94
2019-05-21T12:18:49.677Z,1002.99